Time;durP1;ratioP1;P1;durP2;ratioP2;P2;SDS_P1;SDS_P2;PMS_P1;PMS_P2;Temp;Humidity;BMP_temperature;BMP_pressure;BME280_temperature;BME280_humidity;BME280_pressure;Samples;Min_cycle;Max_cycle;Signal;HPM_P1;HPM_P2
2022/08/07 00:01:21;;;;;;;;;;;;;;;13.28;67.16;101567.44;5078428;28;20108;-71
2022/08/07 00:04:24;;;;;;;;;;;;;;;13.19;67.35;101572.16;5090780;28;19969;-71
2022/08/07 00:07:27;;;;;;;;;;;;;;;13.16;67.39;101569.66;5090484;28;19923;-70
2022/08/07 00:10:31;;;;;;;;;;;;;;;13.00;68.14;101563.44;5090688;28;19919;-70
2022/08/07 00:13:36;;;;;;;;;;;;;;;12.82;68.06;101559.00;5090816;28;20026;-70
2022/08/07 00:16:39;;;;;;;;;;;;;;;12.73;68.51;101563.75;5091282;28;19919;-70
2022/08/07 00:19:42;;;;;;;;;;;;;;;12.88;69.03;101563.97;5090875;28;19989;-70
2022/08/07 00:22:45;;;;;;;;;;;;;;;12.92;68.78;101565.53;5090434;28;19922;-70
2022/08/07 00:25:49;;;;;;;;;;;;;;;12.70;69.04;101565.66;5078038;28;19965;-70
2022/08/07 00:28:52;;;;;;;;;;;;;;;12.68;68.93;101560.47;5090382;28;20049;-70
2022/08/07 00:31:58;;;;;;;;;;;;;;;12.71;69.40;101549.84;5091046;28;19938;-70
2022/08/07 00:35:01;;;;;;;;;;;;;;;12.72;69.03;101543.66;5091080;28;20284;-70
2022/08/07 00:38:04;;;;;;;;;;;;;;;12.61;68.97;101556.44;5090769;28;20273;-70
2022/08/07 00:41:07;;;;;;;;;;;;;;;12.82;68.56;101553.75;5090339;28;19922;-71
2022/08/07 00:44:10;;;;;;;;;;;;;;;12.73;68.95;101549.75;5090166;28;20083;-71
2022/08/07 00:47:13;;;;;;;;;;;;;;;12.61;68.90;101547.72;5077539;28;19922;-70
2022/08/07 00:50:16;;;;;;;;;;;;;;;12.53;68.93;101553.28;5090855;28;19919;-70
2022/08/07 00:53:20;;;;;;;;;;;;;;;12.47;68.80;101548.31;5078115;28;21825;-70
2022/08/07 00:56:23;;;;;;;;;;;;;;;12.28;69.85;101548.25;5077538;28;19938;-70
2022/08/07 00:59:26;;;;;;;;;;;;;;;12.56;69.53;101540.88;5089781;28;20352;-70
2022/08/07 01:02:30;;;;;;;;;;;;;;;12.44;68.94;101533.53;5089549;28;19919;-71
2022/08/07 01:05:34;;;;;;;;;;;;;;;12.47;68.49;101528.16;5089655;28;20061;-71
2022/08/07 01:08:38;;;;;;;;;;;;;;;12.39;69.64;101526.81;5077762;28;20342;-69
2022/08/07 01:11:41;;;;;;;;;;;;;;;12.37;70.15;101534.75;5089648;28;19965;-70
2022/08/07 01:14:44;;;;;;;;;;;;;;;12.28;69.93;101528.16;5089509;28;20412;-70
2022/08/07 01:17:48;;;;;;;;;;;;;;;12.28;70.72;101533.38;5076817;28;19918;-71
2022/08/07 01:21:10;;;;;;;;;;;;;;;12.48;69.45;101519.41;5089219;28;19938;-71
2022/08/07 01:24:14;;;;;;;;;;;;;;;12.44;69.46;101530.06;5089852;28;19923;-70
2022/08/07 01:27:19;;;;;;;;;;;;;;;12.27;69.92;101520.31;5089629;28;19957;-70
2022/08/07 01:30:24;;;;;;;;;;;;;;;12.00;70.87;101522.38;5076439;28;19918;-70
2022/08/07 01:33:28;;;;;;;;;;;;;;;11.94;71.39;101517.41;5076386;28;19922;-70
2022/08/07 01:36:31;;;;;;;;;;;;;;;11.95;71.48;101516.47;5079794;28;20331;-70
2022/08/07 01:39:36;;;;;;;;;;;;;;;12.07;71.18;101515.94;5056401;28;19951;-70
2022/08/07 01:42:44;;;;;;;;;;;;;;;12.42;68.63;101506.56;5056590;28;19923;-70
2022/08/07 01:45:48;;;;;;;;;;;;;;;12.49;68.20;101507.13;5056521;28;19938;-70
2022/08/07 01:48:54;;;;;;;;;;;;;;;12.32;69.02;101508.72;5057034;28;19966;-70
2022/08/07 01:52:01;;;;;;;;;;;;;;;12.01;70.38;101514.44;5056921;28;19920;-70
2022/08/07 01:55:06;;;;;;;;;;;;;;;11.98;70.62;101517.19;5068188;28;19977;-70
2022/08/07 01:58:17;;;;;;;;;;;;;;;11.74;71.37;101520.78;5055986;28;20431;-70
2022/08/07 02:01:23;;;;;;;;;;;;;;;11.68;71.72;101527.16;5056110;28;19986;-70
2022/08/07 02:04:46;;;;;;;;;;;;;;;11.64;72.04;101525.56;5068419;28;19920;-70
2022/08/07 02:07:52;;;;;;;;;;;;;;;11.63;71.63;101518.63;5056249;28;19920;-70
2022/08/07 02:11:08;;;;;;;;;;;;;;;11.73;71.55;101522.56;5055647;28;19962;-70
2022/08/07 02:14:13;;;;;;;;;;;;;;;11.71;71.57;101526.16;5055759;28;20019;-70
2022/08/07 02:17:17;;;;;;;;;;;;;;;11.72;71.25;101518.25;5055996;28;19920;-70
2022/08/07 02:20:21;;;;;;;;;;;;;;;11.61;71.97;101523.06;5056123;28;19966;-70
2022/08/07 02:23:24;;;;;;;;;;;;;;;11.48;72.42;101524.47;5055672;28;20261;-70
2022/08/07 02:26:28;;;;;;;;;;;;;;;11.45;72.64;101521.97;5055038;28;20018;-70
2022/08/07 02:29:33;;;;;;;;;;;;;;;11.46;72.74;101515.84;5067511;28;19939;-70
2022/08/07 02:32:36;;;;;;;;;;;;;;;11.42;72.75;101515.09;5055097;28;20442;-70
2022/08/07 02:35:41;;;;;;;;;;;;;;;11.78;70.96;101523.22;5055753;28;19966;-70
2022/08/07 02:38:46;;;;;;;;;;;;;;;12.00;68.90;101517.13;5056156;28;19923;-70
2022/08/07 02:41:51;;;;;;;;;;;;;;;11.56;71.07;101522.41;5070386;28;19923;-70
2022/08/07 02:44:55;;;;;;;;;;;;;;;11.49;71.65;101521.81;5075229;28;19966;-70
2022/08/07 02:48:00;;;;;;;;;;;;;;;11.44;72.37;101522.91;5086804;28;19919;-70
2022/08/07 02:51:10;;;;;;;;;;;;;;;11.27;72.81;101524.41;5067077;28;19963;-70
2022/08/07 02:54:16;;;;;;;;;;;;;;;11.59;71.75;101519.66;5087573;28;20000;-70
2022/08/07 02:57:22;;;;;;;;;;;;;;;11.37;72.40;101528.38;5074758;28;20342;-70
2022/08/07 03:00:27;;;;;;;;;;;;;;;11.52;71.64;101529.53;5087543;28;19918;-71
2022/08/07 03:03:32;;;;;;;;;;;;;;;11.74;69.26;101521.66;5055142;28;20393;-70
2022/08/07 03:06:36;;;;;;;;;;;;;;;11.94;67.95;101514.78;5067996;28;20365;-70
2022/08/07 03:09:39;;;;;;;;;;;;;;;11.49;70.78;101520.97;5055425;28;20452;-70
2022/08/07 03:12:44;;;;;;;;;;;;;;;11.05;72.30;101518.31;5055168;28;19962;-70
2022/08/07 03:15:50;;;;;;;;;;;;;;;11.03;73.07;101517.50;5054765;28;19981;-70
2022/08/07 03:18:53;;;;;;;;;;;;;;;10.98;73.02;101524.69;5054881;28;19919;-70
2022/08/07 03:21:58;;;;;;;;;;;;;;;10.99;73.47;101518.53;5062394;28;19962;-70
2022/08/07 03:25:01;;;;;;;;;;;;;;;10.88;73.55;101516.31;5087620;28;20045;-70
2022/08/07 03:28:15;;;;;;;;;;;;;;;10.76;74.26;101520.25;5074356;28;19918;-70
2022/08/07 03:31:21;;;;;;;;;;;;;;;10.82;73.50;101506.97;5087305;28;20011;-70
2022/08/07 03:34:29;;;;;;;;;;;;;;;10.84;73.01;101501.66;5074962;28;20368;-70
2022/08/07 03:37:35;;;;;;;;;;;;;;;10.70;74.39;101510.03;5087849;28;19919;-70
2022/08/07 03:40:39;;;;;;;;;;;;;;;11.19;72.72;101502.91;5075279;28;19923;-70
2022/08/07 03:43:47;;;;;;;;;;;;;;;11.10;72.29;101500.66;5075529;28;19985;-70
2022/08/07 03:46:51;;;;;;;;;;;;;;;10.75;73.22;101502.84;5074796;28;20015;-70
2022/08/07 03:49:56;;;;;;;;;;;;;;;10.78;73.29;101512.34;5087276;28;19953;-70
2022/08/07 03:53:01;;;;;;;;;;;;;;;10.69;73.81;101505.72;5074778;28;19993;-70
2022/08/07 03:56:06;;;;;;;;;;;;;;;10.58;73.74;101503.47;5074494;28;20047;-70
2022/08/07 03:59:13;;;;;;;;;;;;;;;10.47;73.93;101509.09;5076161;28;19919;-69
2022/08/07 04:02:21;;;;;;;;;;;;;;;10.42;74.82;101510.16;5078351;28;19922;-70
2022/08/07 04:05:25;;;;;;;;;;;;;;;10.53;74.37;101499.31;5078629;28;20392;-70
2022/08/07 04:08:29;;;;;;;;;;;;;;;10.54;74.48;101507.13;5078907;28;20543;-70
2022/08/07 04:11:33;;;;;;;;;;;;;;;10.59;73.95;101514.78;5078658;28;19919;-70
2022/08/07 04:14:38;;;;;;;;;;;;;;;10.52;74.04;101513.31;5078732;28;19926;-71
2022/08/07 04:17:42;;;;;;;;;;;;;;;10.46;74.27;101510.03;5078159;28;19922;-70
2022/08/07 04:20:46;;;;;;;;;;;;;;;10.39;74.43;101505.91;5077986;28;20431;-70
2022/08/07 04:23:50;;;;;;;;;;;;;;;10.71;74.08;101514.34;5077909;28;19972;-62
2022/08/07 04:26:53;;;;;;;;;;;;;;;10.46;74.98;101517.88;5077883;28;20470;-63
2022/08/07 04:29:57;;;;;;;;;;;;;;;10.51;74.68;101522.06;5078827;28;19918;-63
2022/08/07 04:33:04;;;;;;;;;;;;;;;10.32;75.61;101525.34;5078611;28;19926;-63
2022/08/07 04:36:07;;;;;;;;;;;;;;;10.27;75.82;101531.63;5091012;28;20000;-63
2022/08/07 04:39:11;;;;;;;;;;;;;;;10.31;75.94;101541.09;5078090;28;20346;-63
2022/08/07 04:42:15;;;;;;;;;;;;;;;10.32;75.62;101535.78;5089832;28;19969;-63
2022/08/07 04:45:18;;;;;;;;;;;;;;;10.21;76.21;101537.88;5077652;28;20313;-64
2022/08/07 04:48:37;;;;;;;;;;;;;;;10.25;76.22;101537.72;5078165;28;19922;-63
2022/08/07 04:51:55;;;;;;;;;;;;;;;10.58;74.97;101536.63;5077448;28;19919;-63
2022/08/07 04:55:05;;;;;;;;;;;;;;;10.70;74.43;101530.94;5078031;28;19966;-64
2022/08/07 04:58:08;;;;;;;;;;;;;;;10.91;73.64;101535.41;5077920;28;19922;-63
2022/08/07 05:01:15;;;;;;;;;;;;;;;10.85;73.32;101540.84;5090033;28;19935;-63
2022/08/07 05:04:41;;;;;;;;;;;;;;;11.24;71.29;101540.25;5077646;28;20175;-63
2022/08/07 05:08:03;;;;;;;;;;;;;;;11.09;71.88;101543.44;5077751;28;19964;-63
2022/08/07 05:11:12;;;;;;;;;;;;;;;11.01;71.96;101535.03;5076260;28;20282;-63
2022/08/07 05:14:18;;;;;;;;;;;;;;;11.24;71.38;101537.63;5077151;28;19927;-63
2022/08/07 05:17:24;;;;;;;;;;;;;;;11.41;71.54;101529.94;5076905;28;19922;-63
2022/08/07 05:20:33;;;;;;;;;;;;;;;11.48;71.05;101527.94;5077227;28;19942;-65
2022/08/07 05:23:39;;;;;;;;;;;;;;;11.63;69.63;101529.94;5076620;28;19985;-62
2022/08/07 05:26:42;;;;;;;;;;;;;;;11.72;69.33;101535.75;5076515;28;20434;-65
2022/08/07 05:29:46;;;;;;;;;;;;;;;11.90;68.82;101542.00;5077101;28;19964;-65
2022/08/07 05:32:50;;;;;;;;;;;;;;;12.04;68.14;101550.16;5077128;28;19919;-63
2022/08/07 05:35:54;;;;;;;;;;;;;;;12.02;68.55;101536.25;5077491;28;19994;-64
2022/08/07 05:38:59;;;;;;;;;;;;;;;12.06;68.37;101543.06;5076939;28;20522;-64
2022/08/07 05:42:03;;;;;;;;;;;;;;;12.11;67.95;101554.22;5076364;28;20446;-64
2022/08/07 05:45:06;;;;;;;;;;;;;;;12.18;67.84;101547.78;5076343;28;19956;-65
2022/08/07 05:48:10;;;;;;;;;;;;;;;12.19;67.98;101553.88;4720546;28;10000982;-65
2022/08/07 05:51:18;;;;;;;;;;;;;;;12.31;67.76;101551.59;5083575;28;20388;-64
2022/08/07 05:54:22;;;;;;;;;;;;;;;12.46;66.89;101551.84;5109877;28;20023;-64
2022/08/07 05:57:26;;;;;;;;;;;;;;;12.58;66.49;101556.56;5068517;28;19970;-63
2022/08/07 06:00:30;;;;;;;;;;;;;;;12.62;66.52;101550.25;5064724;28;19923;-63
2022/08/07 06:03:38;;;;;;;;;;;;;;;12.77;66.13;101554.81;5084864;28;20195;-65
2022/08/07 06:06:42;;;;;;;;;;;;;;;12.89;65.82;101555.16;5107855;28;19923;-65
2022/08/07 06:09:46;;;;;;;;;;;;;;;13.00;66.02;101558.19;5096480;28;19917;-65
2022/08/07 06:12:49;;;;;;;;;;;;;;;13.04;65.97;101559.72;5108903;28;19965;-67
2022/08/07 06:15:54;;;;;;;;;;;;;;;13.19;65.55;101564.28;5056418;28;20290;-64
2022/08/07 06:19:02;;;;;;;;;;;;;;;13.08;65.72;101565.69;5056398;28;19919;-65
2022/08/07 06:22:06;;;;;;;;;;;;;;;13.14;66.58;101566.25;5055889;28;20494;-64
2022/08/07 06:25:12;;;;;;;;;;;;;;;13.24;66.01;101554.44;5067901;28;19970;-66
2022/08/07 06:28:15;;;;;;;;;;;;;;;13.40;65.66;101564.22;5067508;28;19919;-65
2022/08/07 06:31:20;;;;;;;;;;;;;;;13.60;65.82;101548.34;5069079;28;20293;-66
2022/08/07 06:34:24;;;;;;;;;;;;;;;13.71;65.71;101548.66;5074636;28;19927;-66
2022/08/07 06:37:27;;;;;;;;;;;;;;;13.80;65.22;101549.16;5075852;28;19918;-66
2022/08/07 06:40:38;;;;;;;;;;;;;;;13.96;64.23;101539.56;5087485;28;19923;-68
2022/08/07 06:43:43;;;;;;;;;;;;;;;14.05;65.07;101539.13;5096256;28;19923;-67
2022/08/07 06:46:54;;;;;;;;;;;;;;;14.23;64.44;101532.06;5095792;28;20387;-67
2022/08/07 06:49:57;;;;;;;;;;;;;;;14.32;64.75;101531.56;5086689;28;19922;-68
2022/08/07 06:53:03;;;;;;;;;;;;;;;14.52;64.23;101527.97;5075576;28;19923;-67
2022/08/07 06:56:06;;;;;;;;;;;;;;;14.51;64.07;101525.38;5074585;28;19980;-67
2022/08/07 06:59:14;;;;;;;;;;;;;;;14.69;63.99;101528.84;5069644;28;19918;-67
2022/08/07 07:02:24;;;;;;;;;;;;;;;14.79;64.47;101519.50;5074849;28;19923;-69
2022/08/07 07:05:27;;;;;;;;;;;;;;;15.00;63.54;101517.50;5074041;28;19923;-70
2022/08/07 07:08:31;;;;;;;;;;;;;;;15.15;62.48;101511.34;5074001;28;19967;-66
2022/08/07 07:11:34;;;;;;;;;;;;;;;15.27;62.16;101517.75;5074186;28;19919;-68
2022/08/07 07:14:58;;;;;;;;;;;;;;;15.34;58.65;101512.03;5088233;28;19942;-68
2022/08/07 07:18:13;;;;;;;;;;;;;;;15.49;57.48;101505.03;5086861;28;19919;-67
2022/08/07 07:21:25;;;;;;;;;;;;;;;15.66;56.71;101500.56;5087416;28;20338;-68
2022/08/07 07:24:30;;;;;;;;;;;;;;;15.78;56.08;101494.63;5087681;28;20355;-68
2022/08/07 07:27:35;;;;;;;;;;;;;;;15.97;55.92;101500.50;5087416;28;19939;-70
2022/08/07 07:30:40;;;;;;;;;;;;;;;16.16;56.67;101495.00;5087397;28;19969;-67
2022/08/07 07:33:45;;;;;;;;;;;;;;;16.32;52.88;101488.78;5087885;28;20222;-67
2022/08/07 07:36:49;;;;;;;;;;;;;;;16.38;53.07;101483.13;5091042;28;19919;-62
2022/08/07 07:39:58;;;;;;;;;;;;;;;16.45;52.49;101490.56;5090762;28;20471;-65
2022/08/07 07:43:04;;;;;;;;;;;;;;;16.57;52.00;101488.97;5090952;28;20415;-66
2022/08/07 07:46:08;;;;;;;;;;;;;;;16.66;51.57;101483.13;5091957;28;19919;-65
2022/08/07 07:49:16;;;;;;;;;;;;;;;16.89;50.78;101479.06;5091976;28;19918;-65
2022/08/07 07:52:23;;;;;;;;;;;;;;;16.96;50.60;101479.50;5079346;28;19919;-66
2022/08/07 07:55:27;;;;;;;;;;;;;;;17.05;51.42;101478.91;5091305;28;19969;-64
2022/08/07 07:58:34;;;;;;;;;;;;;;;17.18;49.82;101473.69;5091397;28;19923;-66
2022/08/07 08:01:39;;;;;;;;;;;;;;;17.17;49.42;101472.84;5090719;28;19958;-68
2022/08/07 08:04:43;;;;;;;;;;;;;;;17.26;49.50;101467.91;5088084;28;20015;-65
2022/08/07 08:07:47;;;;;;;;;;;;;;;17.37;48.79;101462.75;5077449;28;19919;-67
2022/08/07 08:10:58;;;;;;;;;;;;;;;17.58;49.05;101460.47;5091422;28;19919;-67
2022/08/07 08:14:01;;;;;;;;;;;;;;;17.84;48.20;101446.38;5091878;28;19923;-67
2022/08/07 08:17:12;;;;;;;;;;;;;;;18.04;47.65;101460.06;5092380;28;19919;-66
2022/08/07 08:20:17;;;;;;;;;;;;;;;18.13;47.73;101451.47;5091795;28;19915;-66
2022/08/07 08:27:13;;;;;;;;;;;;;;;18.40;46.23;101432.81;5090154;28;19919;-67
2022/08/07 08:30:14;;;;;;;;;;;;;;;18.42;45.68;101441.50;5090091;28;19915;-66
2022/08/07 08:33:19;;;;;;;;;;;;;;;18.62;45.81;101436.56;5090776;28;19934;-68
2022/08/07 08:36:26;;;;;;;;;;;;;;;18.67;45.56;101434.47;5091084;28;19923;-67
2022/08/07 08:39:29;;;;;;;;;;;;;;;18.65;45.64;101434.56;5090675;28;19965;-66
2022/08/07 08:42:32;;;;;;;;;;;;;;;18.88;45.56;101432.06;5077662;28;19922;-66
2022/08/07 08:45:45;;;;;;;;;;;;;;;18.98;44.36;101419.84;5088705;28;20015;-67
2022/08/07 08:49:15;;;;;;;;;;;;;;;19.02;44.33;101416.03;5089912;28;19922;-65
2022/08/07 08:52:24;;;;;;;;;;;;;;;19.15;43.76;101413.31;5080067;28;20010;-66
2022/08/07 08:55:39;;;;;;;;;;;;;;;19.22;43.49;101410.06;5090020;28;19985;-66
2022/08/07 08:58:48;;;;;;;;;;;;;;;19.39;43.98;101406.16;5089741;28;20305;-66
2022/08/07 09:01:55;;;;;;;;;;;;;;;19.63;43.34;101403.47;5089768;28;20335;-67
2022/08/07 09:05:04;;;;;;;;;;;;;;;19.73;42.80;101403.63;5089827;28;19918;-66
2022/08/07 09:08:21;;;;;;;;;;;;;;;19.70;42.55;101399.41;5089670;28;19919;-66
2022/08/07 09:11:34;;;;;;;;;;;;;;;19.89;42.24;101397.97;5089709;28;20510;-65
2022/08/07 09:14:45;;;;;;;;;;;;;;;19.91;42.22;101396.03;5090152;28;20387;-66
2022/08/07 09:18:14;;;;;;;;;;;;;;;20.07;41.71;101396.56;5088731;28;19974;-66
2022/08/07 09:21:30;;;;;;;;;;;;;;;20.03;42.05;101389.78;5066679;28;20301;-64
2022/08/07 09:24:58;;;;;;;;;;;;;;;20.05;41.07;101387.00;5067753;28;20433;-64
2022/08/07 09:28:06;;;;;;;;;;;;;;;20.00;41.16;101379.38;5066853;28;20365;-66
2022/08/07 09:31:27;;;;;;;;;;;;;;;20.19;41.78;101379.63;5066739;28;20393;-63
2022/08/07 09:34:44;;;;;;;;;;;;;;;20.26;41.28;101379.13;5067042;28;19922;-69
2022/08/07 09:37:58;;;;;;;;;;;;;;;20.44;41.33;101380.34;5067572;28;20383;-68
2022/08/07 09:41:20;;;;;;;;;;;;;;;20.63;40.26;101377.91;5066657;28;19919;-67
2022/08/07 09:44:42;;;;;;;;;;;;;;;20.72;39.92;101372.81;5067150;28;20061;-67
2022/08/07 09:47:45;;;;;;;;;;;;;;;20.72;39.24;101375.47;5071145;28;19990;-68
2022/08/07 09:50:59;;;;;;;;;;;;;;;20.72;41.40;101357.72;5046733;28;19923;-67
2022/08/07 09:54:04;;;;;;;;;;;;;;;20.80;40.93;101362.41;5070866;28;19969;-64
2022/08/07 09:57:28;;;;;;;;;;;;;;;20.69;41.20;101349.16;5069977;28;19962;-65
2022/08/07 10:00:49;;;;;;;;;;;;;;;20.94;40.54;101343.50;5070024;28;20352;-68
2022/08/07 10:03:54;;;;;;;;;;;;;;;21.06;40.83;101342.50;5069908;28;20416;-66
2022/08/07 10:07:16;;;;;;;;;;;;;;;21.35;39.10;101337.41;5070036;28;19935;-66
2022/08/07 10:10:37;;;;;;;;;;;;;;;21.26;38.58;101329.31;5058156;28;19923;-66
2022/08/07 10:13:52;;;;;;;;;;;;;;;21.42;38.27;101320.91;5070220;28;20336;-66
2022/08/07 10:17:38;;;;;;;;;;;;;;;21.48;38.67;101318.56;5058497;28;19997;-66
2022/08/07 10:21:05;;;;;;;;;;;;;;;21.49;38.68;101314.09;5028275;28;19927;-67
2022/08/07 10:24:26;;;;;;;;;;;;;;;21.54;39.51;101307.41;5033822;28;20336;-66
2022/08/07 10:27:48;;;;;;;;;;;;;;;21.63;38.93;101302.25;5070002;28;19914;-67
2022/08/07 10:31:03;;;;;;;;;;;;;;;21.72;39.11;101307.59;5070248;28;20331;-68
2022/08/07 10:34:18;;;;;;;;;;;;;;;22.01;38.70;101304.22;5070157;28;19922;-67
2022/08/07 10:37:25;;;;;;;;;;;;;;;22.09;37.92;101288.41;5070211;28;19967;-67
2022/08/07 10:40:41;;;;;;;;;;;;;;;22.09;37.07;101287.56;5070121;28;19958;-67
2022/08/07 10:44:03;;;;;;;;;;;;;;;22.17;37.51;101285.09;5069893;28;20393;-67
2022/08/07 10:47:19;;;;;;;;;;;;;;;22.27;37.37;101285.94;5057155;28;19919;-67
2022/08/07 10:50:34;;;;;;;;;;;;;;;22.33;36.72;101273.91;5069448;28;19947;-65
2022/08/07 10:53:52;;;;;;;;;;;;;;;22.35;37.57;101283.44;5069657;28;19959;-66
2022/08/07 10:56:58;;;;;;;;;;;;;;;22.41;36.55;101268.72;5069978;28;19923;-66
2022/08/07 11:00:10;;;;;;;;;;;;;;;22.17;38.35;101280.59;5069624;28;19957;-67
2022/08/07 11:03:22;;;;;;;;;;;;;;;22.23;37.97;101279.22;5069219;28;20400;-66
2022/08/07 11:06:28;;;;;;;;;;;;;;;22.47;36.60;101271.69;4366361;28;9999929;-64
2022/08/07 11:09:37;;;;;;;;;;;;;;;22.38;35.71;101261.84;5065310;28;19970;-66
2022/08/07 11:12:58;;;;;;;;;;;;;;;22.18;35.74;101261.00;5066147;28;19923;-65
2022/08/07 11:16:07;;;;;;;;;;;;;;;22.02;37.12;101252.66;4717449;28;10000166;-65
2022/08/07 11:19:25;;;;;;;;;;;;;;;22.71;36.26;101257.91;5066428;28;19924;-66
2022/08/07 11:22:32;;;;;;;;;;;;;;;22.90;34.94;101257.06;5066517;28;19974;-65
2022/08/07 11:25:36;;;;;;;;;;;;;;;23.01;33.65;101249.94;5069490;28;19963;-66
2022/08/07 11:28:48;;;;;;;;;;;;;;;22.73;34.22;101234.63;5069764;28;20391;-66
2022/08/07 11:31:54;;;;;;;;;;;;;;;22.87;34.53;101240.50;5057241;28;19927;-65
2022/08/07 11:34:59;;;;;;;;;;;;;;;22.91;34.79;101233.91;5069398;28;19971;-65
2022/08/07 11:38:26;;;;;;;;;;;;;;;23.00;33.37;101232.22;5069735;28;20340;-66
2022/08/07 11:41:34;;;;;;;;;;;;;;;22.75;31.98;101229.19;5069284;28;20019;-70
2022/08/07 11:44:54;;;;;;;;;;;;;;;22.79;32.92;101213.72;5069301;28;19923;-65
2022/08/07 11:48:16;;;;;;;;;;;;;;;22.78;34.68;101215.53;5069504;28;19919;-70
2022/08/07 11:51:39;;;;;;;;;;;;;;;22.79;34.79;101211.91;5069576;28;19923;-68
2022/08/07 11:55:01;;;;;;;;;;;;;;;23.31;33.47;101208.84;5069489;28;19924;-68
2022/08/07 11:58:29;;;;;;;;;;;;;;;23.41;33.58;101213.13;5056789;28;19986;-70
2022/08/07 12:01:38;;;;;;;;;;;;;;;23.35;33.17;101211.06;5069260;28;20490;-69
2022/08/07 12:04:55;;;;;;;;;;;;;;;23.50;31.70;101206.09;5069102;28;19947;-65
2022/08/07 12:08:01;;;;;;;;;;;;;;;23.55;32.82;101198.50;5068901;28;19923;-66
2022/08/07 12:11:08;;;;;;;;;;;;;;;23.60;32.74;101188.19;5056583;28;19944;-67
2022/08/07 12:14:15;;;;;;;;;;;;;;;23.77;31.60;101191.06;5068698;28;19931;-67
2022/08/07 12:17:21;;;;;;;;;;;;;;;23.84;32.30;101192.19;5069023;28;19919;-66
2022/08/07 12:20:29;;;;;;;;;;;;;;;23.87;32.41;101187.38;5071378;28;19924;-67
2022/08/07 12:23:38;;;;;;;;;;;;;;;24.07;30.35;101195.25;5072752;28;20388;-67
2022/08/07 12:26:48;;;;;;;;;;;;;;;24.12;29.80;101200.97;5060495;28;19923;-67
2022/08/07 12:30:03;;;;;;;;;;;;;;;24.02;31.56;101184.16;5072766;28;20280;-67
2022/08/07 12:33:11;;;;;;;;;;;;;;;24.30;31.21;101180.44;5060457;28;19958;-66
2022/08/07 12:36:15;;;;;;;;;;;;;;;24.33;29.38;101179.28;5072508;28;19974;-66
2022/08/07 12:39:20;;;;;;;;;;;;;;;24.33;30.24;101177.44;5072338;28;19923;-67
2022/08/07 12:42:28;;;;;;;;;;;;;;;24.59;30.63;101180.19;5072190;28;19969;-66
2022/08/07 12:45:51;;;;;;;;;;;;;;;25.07;29.98;101186.03;5072260;28;20348;-66
2022/08/07 12:49:01;;;;;;;;;;;;;;;25.43;29.32;101175.19;5071945;28;19970;-66
2022/08/07 12:52:11;;;;;;;;;;;;;;;25.61;28.33;101167.88;5072124;28;20283;-67
2022/08/07 12:55:31;;;;;;;;;;;;;;;25.49;28.56;101159.34;5048074;28;20031;-66
2022/08/07 12:58:37;;;;;;;;;;;;;;;25.96;28.17;101166.00;5072181;28;20353;-67
2022/08/07 13:02:01;;;;;;;;;;;;;;;26.13;28.08;101161.47;5072061;28;19919;-67
2022/08/07 13:05:15;;;;;;;;;;;;;;;26.35;27.26;101166.19;5047996;28;19969;-67
2022/08/07 13:08:42;;;;;;;;;;;;;;;26.44;27.20;101158.97;5071812;28;20392;-66
2022/08/07 13:11:48;;;;;;;;;;;;;;;26.84;27.19;101151.94;5071469;28;19923;-67
2022/08/07 13:15:05;;;;;;;;;;;;;;;26.92;26.97;101159.13;5058985;28;19931;-67
2022/08/07 13:18:24;;;;;;;;;;;;;;;27.03;25.72;101154.22;5071542;28;19924;-67
2022/08/07 13:21:29;;;;;;;;;;;;;;;27.31;25.01;101146.59;5060230;28;20044;-66
2022/08/07 13:24:43;;;;;;;;;;;;;;;27.59;24.11;101138.88;5087314;28;20433;-66
2022/08/07 13:27:49;;;;;;;;;;;;;;;27.96;25.23;101139.22;5086653;28;19941;-66
2022/08/07 13:31:16;;;;;;;;;;;;;;;28.00;24.09;101141.34;5073779;28;19919;-70
2022/08/07 13:34:29;;;;;;;;;;;;;;;28.02;24.63;101131.25;5087588;28;20019;-66
2022/08/07 13:37:52;;;;;;;;;;;;;;;28.59;23.58;101134.47;5087654;28;19919;-66
2022/08/07 13:40:55;;;;;;;;;;;;;;;29.11;22.67;101122.84;5088704;28;19935;-66
2022/08/07 13:44:00;;;;;;;;;;;;;;;29.42;22.14;101118.06;5069535;28;19939;-64
2022/08/07 13:47:05;;;;;;;;;;;;;;;30.37;21.25;101117.97;5070343;28;19920;-65
2022/08/07 13:50:09;;;;;;;;;;;;;;;30.28;20.33;101115.44;5070412;28;19965;-65
2022/08/07 13:53:17;;;;;;;;;;;;;;;31.11;20.59;101110.16;5070131;28;19981;-66
2022/08/07 13:56:23;;;;;;;;;;;;;;;31.02;20.28;101112.19;5070887;28;19928;-66
2022/08/07 13:59:30;;;;;;;;;;;;;;;31.00;19.02;101113.41;5070013;28;20424;-66
2022/08/07 14:02:35;;;;;;;;;;;;;;;34.42;16.69;101091.47;5053385;28;20336;-66
2022/08/07 14:05:38;;;;;;;;;;;;;;;36.47;14.37;101102.47;5069233;28;19923;-66
2022/08/07 14:13:40;;;;;;;;;;;;;;;38.50;12.62;101088.28;5029632;28;19919;-66
2022/08/07 14:16:46;;;;;;;;;;;;;;;37.63;13.32;101077.88;5077029;28;19919;-67
2022/08/07 14:19:58;;;;;;;;;;;;;;;37.58;13.63;101070.44;5087142;28;19922;-66
2022/08/07 14:23:24;;;;;;;;;;;;;;;39.94;12.11;101066.88;5087525;28;20419;-66
2022/08/07 14:26:31;;;;;;;;;;;;;;;37.79;13.89;101082.53;5087536;28;19919;-67
2022/08/07 14:29:36;;;;;;;;;;;;;;;40.61;11.42;101067.31;5066544;28;19920;-65
2022/08/07 14:32:55;;;;;;;;;;;;;;;39.83;12.40;101061.63;5067888;28;20022;-65
2022/08/07 14:35:59;;;;;;;;;;;;;;;40.31;11.40;101062.50;5067373;28;20015;-66
2022/08/07 14:39:03;;;;;;;;;;;;;;;39.85;11.67;101057.50;5067590;28;19961;-65
2022/08/07 14:42:08;;;;;;;;;;;;;;;38.69;12.06;101052.47;5077295;28;20007;-66
2022/08/07 14:45:12;;;;;;;;;;;;;;;38.89;12.66;101044.53;5088601;28;19965;-66
2022/08/07 14:48:32;;;;;;;;;;;;;;;40.80;11.67;101046.56;5088924;28;19923;-67
2022/08/07 14:51:37;;;;;;;;;;;;;;;38.12;13.39;101039.91;5088164;28;19911;-67
2022/08/07 14:54:42;;;;;;;;;;;;;;;38.37;13.49;101045.78;5088460;28;19968;-66
2022/08/07 14:57:46;;;;;;;;;;;;;;;37.81;13.87;101035.88;5088841;28;19962;-66
2022/08/07 15:00:50;;;;;;;;;;;;;;;35.97;14.45;101038.44;5088691;28;20309;-66
2022/08/07 15:03:53;;;;;;;;;;;;;;;36.14;15.27;101038.56;5089172;28;19919;-66
2022/08/07 15:06:57;;;;;;;;;;;;;;;36.54;14.52;101035.97;5088153;28;19919;-66
2022/08/07 15:10:01;;;;;;;;;;;;;;;37.66;13.56;101026.38;5088732;28;19927;-66
2022/08/07 15:13:14;;;;;;;;;;;;;;;37.52;13.81;101021.47;5088700;28;19972;-67
2022/08/07 15:16:19;;;;;;;;;;;;;;;39.34;12.33;101026.94;5088297;28;19966;-68
2022/08/07 15:19:25;;;;;;;;;;;;;;;39.51;11.50;101019.47;5088765;28;20395;-67
2022/08/07 15:22:29;;;;;;;;;;;;;;;38.19;13.02;101020.63;5089285;28;20338;-68
2022/08/07 15:25:35;;;;;;;;;;;;;;;39.23;12.71;101017.00;5089409;28;19919;-67
2022/08/07 15:28:39;;;;;;;;;;;;;;;39.18;11.93;101022.41;5089626;28;19918;-67
2022/08/07 15:31:43;;;;;;;;;;;;;;;37.70;12.38;101021.25;5088624;28;19995;-66
2022/08/07 15:34:49;;;;;;;;;;;;;;;36.69;13.39;101013.63;5088255;28;20027;-66
2022/08/07 15:37:54;;;;;;;;;;;;;;;34.82;14.91;101014.19;5088268;28;19919;-66
2022/08/07 15:40:59;;;;;;;;;;;;;;;36.12;14.18;101010.75;5068236;28;20415;-67
2022/08/07 15:44:05;;;;;;;;;;;;;;;38.61;13.36;101005.38;5068505;28;19923;-67
2022/08/07 15:47:09;;;;;;;;;;;;;;;37.47;13.98;101006.69;5068253;28;19919;-68
2022/08/07 15:50:15;;;;;;;;;;;;;;;36.96;14.45;100997.53;5068629;28;19919;-68
2022/08/07 15:53:23;;;;;;;;;;;;;;;38.32;12.79;100998.41;5068793;28;20505;-68
2022/08/07 15:56:37;;;;;;;;;;;;;;;34.99;15.98;100992.63;5072759;28;19923;-68
2022/08/07 15:59:41;;;;;;;;;;;;;;;33.97;16.37;100988.53;5072205;28;20281;-68
2022/08/07 16:02:45;;;;;;;;;;;;;;;33.80;17.53;100995.59;5072222;28;19973;-69
2022/08/07 16:05:51;;;;;;;;;;;;;;;36.39;14.89;100991.19;5071958;28;20012;-69
2022/08/07 16:08:57;;;;;;;;;;;;;;;37.49;13.74;100986.50;5072007;28;20137;-69
2022/08/07 16:12:04;;;;;;;;;;;;;;;36.88;14.18;100980.75;5071455;28;19966;-69
2022/08/07 16:15:28;;;;;;;;;;;;;;;35.93;14.45;100985.56;5071454;28;19923;-70